W75 weather

Hummel Field
Saluda, Virginia, United States

Public forecast

Using degrees Fahrenheit for public forecast. Weather courtesy of forecast.io.

METAR (pilot weather report)

Closest report is Middle Peninsula Regional Airport, 15.9 nm (29.4 km) WSW. Retrieved 2019/09/21 07:35 UTC (10 minutes ago):

KFYJ 210735Z AUTO 18003KT 10SM CLR 16/13 A3027 RMK AO1 T01550127

TAF (pilot weather forecast)

Closest forecast is Newport News Williamsburg International Airport, 28.3 nm (52.5 km) S. Retrieved 2019/09/21 06:42 UTC (1 hour ago):

TAF KPHF 210540Z 2106/2206 20005KT P6SM SKC FM211400 23008KT P6SM SKC FM212200 19006KT P6SM SKC